sensor_id;sensor_type;location;lat;lon;timestamp;P1;durP1;ratioP1;P2;durP2;ratioP2
75634;SDS011;64227;48.724;9.104;2023-08-06T00:01:34;1.42;;;1.30;;
75634;SDS011;64227;48.724;9.104;2023-08-06T00:03:59;1.42;;;1.20;;
75634;SDS011;64227;48.724;9.104;2023-08-06T00:06:26;2.05;;;1.42;;
75634;SDS011;64227;48.724;9.104;2023-08-06T00:08:51;2.10;;;1.48;;
75634;SDS011;64227;48.724;9.104;2023-08-06T00:11:16;2.10;;;1.58;;
75634;SDS011;64227;48.724;9.104;2023-08-06T00:13:41;1.35;;;1.23;;
75634;SDS011;64227;48.724;9.104;2023-08-06T00:16:10;1.67;;;1.38;;
75634;SDS011;64227;48.724;9.104;2023-08-06T00:18:36;1.58;;;1.40;;
75634;SDS011;64227;48.724;9.104;2023-08-06T00:21:02;1.85;;;1.73;;
75634;SDS011;64227;48.724;9.104;2023-08-06T00:23:27;2.70;;;1.83;;
75634;SDS011;64227;48.724;9.104;2023-08-06T00:25:52;2.65;;;2.10;;
75634;SDS011;64227;48.724;9.104;2023-08-06T00:28:18;2.28;;;2.08;;
75634;SDS011;64227;48.724;9.104;2023-08-06T00:30:43;3.05;;;2.22;;
75634;SDS011;64227;48.724;9.104;2023-08-06T00:33:08;2.70;;;2.08;;
75634;SDS011;64227;48.724;9.104;2023-08-06T00:35:34;2.78;;;2.25;;
75634;SDS011;64227;48.724;9.104;2023-08-06T00:37:59;3.63;;;2.83;;
75634;SDS011;64227;48.724;9.104;2023-08-06T00:40:24;2.88;;;2.22;;
75634;SDS011;64227;48.724;9.104;2023-08-06T00:42:49;2.60;;;1.85;;
75634;SDS011;64227;48.724;9.104;2023-08-06T00:45:15;2.65;;;2.38;;
75634;SDS011;64227;48.724;9.104;2023-08-06T00:47:41;2.72;;;2.30;;
75634;SDS011;64227;48.724;9.104;2023-08-06T00:50:07;3.00;;;2.08;;
75634;SDS011;64227;48.724;9.104;2023-08-06T00:52:33;3.72;;;2.13;;
75634;SDS011;64227;48.724;9.104;2023-08-06T00:54:58;2.42;;;1.75;;
75634;SDS011;64227;48.724;9.104;2023-08-06T00:57:24;2.05;;;1.85;;
75634;SDS011;64227;48.724;9.104;2023-08-06T00:59:50;2.95;;;1.73;;
75634;SDS011;64227;48.724;9.104;2023-08-06T01:02:16;2.63;;;1.80;;
75634;SDS011;64227;48.724;9.104;2023-08-06T01:04:41;2.20;;;1.60;;
75634;SDS011;64227;48.724;9.104;2023-08-06T01:07:17;2.03;;;1.77;;
75634;SDS011;64227;48.724;9.104;2023-08-06T01:09:57;2.08;;;1.88;;
75634;SDS011;64227;48.724;9.104;2023-08-06T01:13:01;2.75;;;1.58;;
75634;SDS011;64227;48.724;9.104;2023-08-06T01:15:31;1.67;;;1.50;;
75634;SDS011;64227;48.724;9.104;2023-08-06T01:17:58;2.50;;;1.60;;
75634;SDS011;64227;48.724;9.104;2023-08-06T01:20:27;1.50;;;1.40;;
75634;SDS011;64227;48.724;9.104;2023-08-06T01:22:53;2.67;;;1.35;;
75634;SDS011;64227;48.724;9.104;2023-08-06T01:25:18;1.98;;;1.50;;
75634;SDS011;64227;48.724;9.104;2023-08-06T01:27:50;2.60;;;1.67;;
75634;SDS011;64227;48.724;9.104;2023-08-06T01:32:44;2.77;;;1.87;;
75634;SDS011;64227;48.724;9.104;2023-08-06T01:35:10;1.92;;;1.50;;
75634;SDS011;64227;48.724;9.104;2023-08-06T01:37:36;2.03;;;1.65;;
75634;SDS011;64227;48.724;9.104;2023-08-06T01:40:05;2.13;;;1.80;;
75634;SDS011;64227;48.724;9.104;2023-08-06T01:42:32;2.70;;;1.77;;
75634;SDS011;64227;48.724;9.104;2023-08-06T01:44:57;1.60;;;1.50;;
75634;SDS011;64227;48.724;9.104;2023-08-06T01:47:23;2.13;;;1.50;;
75634;SDS011;64227;48.724;9.104;2023-08-06T01:49:48;1.80;;;1.67;;
75634;SDS011;64227;48.724;9.104;2023-08-06T01:52:13;1.83;;;1.40;;
75634;SDS011;64227;48.724;9.104;2023-08-06T01:54:39;3.03;;;1.50;;
75634;SDS011;64227;48.724;9.104;2023-08-06T01:57:04;2.60;;;1.85;;
75634;SDS011;64227;48.724;9.104;2023-08-06T01:59:30;2.10;;;1.88;;
75634;SDS011;64227;48.724;9.104;2023-08-06T02:01:55;2.20;;;1.77;;
75634;SDS011;64227;48.724;9.104;2023-08-06T02:04:20;2.83;;;1.73;;
75634;SDS011;64227;48.724;9.104;2023-08-06T02:06:46;1.85;;;1.50;;
75634;SDS011;64227;48.724;9.104;2023-08-06T02:09:11;1.75;;;1.63;;
75634;SDS011;64227;48.724;9.104;2023-08-06T02:11:36;1.98;;;1.83;;
75634;SDS011;64227;48.724;9.104;2023-08-06T02:14:02;1.88;;;1.70;;
75634;SDS011;64227;48.724;9.104;2023-08-06T02:16:27;2.17;;;1.90;;
75634;SDS011;64227;48.724;9.104;2023-08-06T02:18:52;2.67;;;1.95;;
75634;SDS011;64227;48.724;9.104;2023-08-06T02:21:17;2.78;;;1.58;;
75634;SDS011;64227;48.724;9.104;2023-08-06T02:23:43;3.72;;;2.30;;
75634;SDS011;64227;48.724;9.104;2023-08-06T02:26:08;3.15;;;1.65;;
75634;SDS011;64227;48.724;9.104;2023-08-06T02:28:33;1.50;;;1.40;;
75634;SDS011;64227;48.724;9.104;2023-08-06T02:30:59;1.70;;;1.60;;
75634;SDS011;64227;48.724;9.104;2023-08-06T02:33:25;2.58;;;1.60;;
75634;SDS011;64227;48.724;9.104;2023-08-06T02:35:50;2.28;;;1.70;;
75634;SDS011;64227;48.724;9.104;2023-08-06T02:38:15;3.53;;;1.80;;
75634;SDS011;64227;48.724;9.104;2023-08-06T02:40:47;2.83;;;1.70;;
75634;SDS011;64227;48.724;9.104;2023-08-06T02:43:12;1.80;;;1.70;;
75634;SDS011;64227;48.724;9.104;2023-08-06T02:45:38;2.30;;;1.95;;
75634;SDS011;64227;48.724;9.104;2023-08-06T02:48:03;4.28;;;1.95;;
75634;SDS011;64227;48.724;9.104;2023-08-06T02:50:29;2.13;;;1.58;;
75634;SDS011;64227;48.724;9.104;2023-08-06T02:52:54;1.88;;;1.55;;
75634;SDS011;64227;48.724;9.104;2023-08-06T02:55:19;4.40;;;1.40;;
75634;SDS011;64227;48.724;9.104;2023-08-06T02:57:45;4.55;;;1.80;;
75634;SDS011;64227;48.724;9.104;2023-08-06T03:00:10;1.80;;;1.60;;
75634;SDS011;64227;48.724;9.104;2023-08-06T03:02:36;4.30;;;1.98;;
75634;SDS011;64227;48.724;9.104;2023-08-06T03:05:02;2.30;;;1.75;;
75634;SDS011;64227;48.724;9.104;2023-08-06T03:07:28;1.50;;;1.30;;
75634;SDS011;64227;48.724;9.104;2023-08-06T03:09:53;2.42;;;1.35;;
75634;SDS011;64227;48.724;9.104;2023-08-06T03:12:19;2.22;;;1.48;;
75634;SDS011;64227;48.724;9.104;2023-08-06T03:14:44;1.70;;;1.60;;
75634;SDS011;64227;48.724;9.104;2023-08-06T03:17:09;1.63;;;1.30;;
75634;SDS011;64227;48.724;9.104;2023-08-06T03:19:35;1.50;;;1.38;;
75634;SDS011;64227;48.724;9.104;2023-08-06T03:22:00;1.75;;;1.17;;
75634;SDS011;64227;48.724;9.104;2023-08-06T03:24:25;3.03;;;1.38;;
75634;SDS011;64227;48.724;9.104;2023-08-06T03:26:50;2.40;;;1.60;;
75634;SDS011;64227;48.724;9.104;2023-08-06T03:29:16;1.45;;;1.00;;
75634;SDS011;64227;48.724;9.104;2023-08-06T03:31:41;1.15;;;1.00;;
75634;SDS011;64227;48.724;9.104;2023-08-06T03:34:06;5.35;;;1.63;;
75634;SDS011;64227;48.724;9.104;2023-08-06T03:36:32;2.95;;;1.27;;
75634;SDS011;64227;48.724;9.104;2023-08-06T03:38:57;3.50;;;1.30;;
75634;SDS011;64227;48.724;9.104;2023-08-06T03:41:22;2.25;;;1.20;;
75634;SDS011;64227;48.724;9.104;2023-08-06T03:43:48;2.20;;;1.30;;
75634;SDS011;64227;48.724;9.104;2023-08-06T03:46:13;1.27;;;1.10;;
75634;SDS011;64227;48.724;9.104;2023-08-06T03:48:38;2.60;;;1.15;;
75634;SDS011;64227;48.724;9.104;2023-08-06T03:51:04;1.15;;;1.05;;
75634;SDS011;64227;48.724;9.104;2023-08-06T03:53:29;1.90;;;1.00;;
75634;SDS011;64227;48.724;9.104;2023-08-06T03:55:54;1.35;;;0.90;;
75634;SDS011;64227;48.724;9.104;2023-08-06T03:58:24;1.45;;;1.10;;
75634;SDS011;64227;48.724;9.104;2023-08-06T04:00:56;4.60;;;1.73;;
75634;SDS011;64227;48.724;9.104;2023-08-06T04:03:23;3.15;;;1.30;;
75634;SDS011;64227;48.724;9.104;2023-08-06T04:05:48;1.55;;;1.05;;
75634;SDS011;64227;48.724;9.104;2023-08-06T04:08:13;1.55;;;1.10;;
75634;SDS011;64227;48.724;9.104;2023-08-06T04:10:38;2.00;;;1.00;;
75634;SDS011;64227;48.724;9.104;2023-08-06T04:13:04;1.38;;;0.95;;
75634;SDS011;64227;48.724;9.104;2023-08-06T04:15:29;1.42;;;1.10;;
75634;SDS011;64227;48.724;9.104;2023-08-06T04:17:54;1.23;;;0.95;;
75634;SDS011;64227;48.724;9.104;2023-08-06T04:20:21;2.63;;;1.40;;
75634;SDS011;64227;48.724;9.104;2023-08-06T04:22:47;2.33;;;0.82;;
75634;SDS011;64227;48.724;9.104;2023-08-06T04:25:12;3.17;;;1.20;;
75634;SDS011;64227;48.724;9.104;2023-08-06T04:27:37;3.90;;;1.02;;
75634;SDS011;64227;48.724;9.104;2023-08-06T04:32:31;2.20;;;0.90;;
75634;SDS011;64227;48.724;9.104;2023-08-06T04:34:57;2.55;;;0.90;;
75634;SDS011;64227;48.724;9.104;2023-08-06T04:37:22;1.40;;;0.80;;
75634;SDS011;64227;48.724;9.104;2023-08-06T04:39:47;2.67;;;0.95;;
75634;SDS011;64227;48.724;9.104;2023-08-06T04:42:13;0.98;;;0.80;;
75634;SDS011;64227;48.724;9.104;2023-08-06T04:44:38;3.40;;;1.23;;
75634;SDS011;64227;48.724;9.104;2023-08-06T04:47:03;1.10;;;1.00;;
75634;SDS011;64227;48.724;9.104;2023-08-06T04:49:29;1.95;;;0.70;;
75634;SDS011;64227;48.724;9.104;2023-08-06T04:51:54;2.58;;;1.13;;
75634;SDS011;64227;48.724;9.104;2023-08-06T04:54:19;1.00;;;0.80;;
75634;SDS011;64227;48.724;9.104;2023-08-06T04:56:44;1.13;;;0.80;;
75634;SDS011;64227;48.724;9.104;2023-08-06T04:59:10;2.15;;;0.73;;
75634;SDS011;64227;48.724;9.104;2023-08-06T05:01:35;0.82;;;0.55;;
75634;SDS011;64227;48.724;9.104;2023-08-06T05:04:00;1.15;;;0.63;;
75634;SDS011;64227;48.724;9.104;2023-08-06T05:06:26;1.08;;;0.60;;
75634;SDS011;64227;48.724;9.104;2023-08-06T05:08:51;1.83;;;0.70;;
75634;SDS011;64227;48.724;9.104;2023-08-06T05:11:16;0.88;;;0.60;;
75634;SDS011;64227;48.724;9.104;2023-08-06T05:13:42;1.23;;;0.75;;
75634;SDS011;64227;48.724;9.104;2023-08-06T05:16:07;0.80;;;0.68;;
75634;SDS011;64227;48.724;9.104;2023-08-06T05:18:32;2.28;;;0.77;;
75634;SDS011;64227;48.724;9.104;2023-08-06T05:20:59;0.70;;;0.40;;
75634;SDS011;64227;48.724;9.104;2023-08-06T05:23:24;2.20;;;0.73;;
75634;SDS011;64227;48.724;9.104;2023-08-06T05:25:50;1.08;;;0.50;;
75634;SDS011;64227;48.724;9.104;2023-08-06T05:28:15;0.40;;;0.40;;
75634;SDS011;64227;48.724;9.104;2023-08-06T05:30:40;1.17;;;0.50;;
75634;SDS011;64227;48.724;9.104;2023-08-06T05:33:06;1.20;;;0.50;;
75634;SDS011;64227;48.724;9.104;2023-08-06T05:35:31;1.38;;;0.60;;
75634;SDS011;64227;48.724;9.104;2023-08-06T05:37:56;1.15;;;0.40;;
75634;SDS011;64227;48.724;9.104;2023-08-06T05:40:22;1.00;;;0.32;;
75634;SDS011;64227;48.724;9.104;2023-08-06T05:42:47;3.33;;;0.45;;
75634;SDS011;64227;48.724;9.104;2023-08-06T05:45:13;0.80;;;0.40;;
75634;SDS011;64227;48.724;9.104;2023-08-06T05:47:38;1.50;;;0.35;;
75634;SDS011;64227;48.724;9.104;2023-08-06T05:50:04;0.70;;;0.45;;
75634;SDS011;64227;48.724;9.104;2023-08-06T05:52:29;2.63;;;0.40;;
75634;SDS011;64227;48.724;9.104;2023-08-06T05:54:55;4.13;;;0.60;;
75634;SDS011;64227;48.724;9.104;2023-08-06T05:57:20;0.70;;;0.25;;
75634;SDS011;64227;48.724;9.104;2023-08-06T05:59:45;1.27;;;0.30;;
75634;SDS011;64227;48.724;9.104;2023-08-06T06:02:11;0.70;;;0.30;;
75634;SDS011;64227;48.724;9.104;2023-08-06T06:04:36;1.45;;;0.30;;
75634;SDS011;64227;48.724;9.104;2023-08-06T06:07:02;1.55;;;0.75;;
75634;SDS011;64227;48.724;9.104;2023-08-06T06:09:27;0.45;;;0.30;;
75634;SDS011;64227;48.724;9.104;2023-08-06T06:11:52;1.05;;;0.52;;
75634;SDS011;64227;48.724;9.104;2023-08-06T06:14:18;0.63;;;0.30;;
75634;SDS011;64227;48.724;9.104;2023-08-06T06:16:44;0.93;;;0.40;;
75634;SDS011;64227;48.724;9.104;2023-08-06T06:19:09;2.67;;;0.30;;
75634;SDS011;64227;48.724;9.104;2023-08-06T06:21:35;1.15;;;0.32;;
75634;SDS011;64227;48.724;9.104;2023-08-06T06:24:00;0.90;;;0.52;;
75634;SDS011;64227;48.724;9.104;2023-08-06T06:26:25;0.13;;;0.10;;
75634;SDS011;64227;48.724;9.104;2023-08-06T06:28:51;0.30;;;0.30;;
75634;SDS011;64227;48.724;9.104;2023-08-06T06:31:16;0.70;;;0.40;;
75634;SDS011;64227;48.724;9.104;2023-08-06T06:33:41;0.52;;;0.30;;
75634;SDS011;64227;48.724;9.104;2023-08-06T06:36:07;5.03;;;2.53;;
75634;SDS011;64227;48.724;9.104;2023-08-06T06:38:32;1.67;;;0.40;;
75634;SDS011;64227;48.724;9.104;2023-08-06T06:40:58;1.50;;;0.38;;
75634;SDS011;64227;48.724;9.104;2023-08-06T06:43:23;1.60;;;0.93;;
75634;SDS011;64227;48.724;9.104;2023-08-06T06:45:52;0.88;;;0.30;;
75634;SDS011;64227;48.724;9.104;2023-08-06T06:48:22;0.73;;;0.40;;
75634;SDS011;64227;48.724;9.104;2023-08-06T06:50:48;0.30;;;0.30;;
75634;SDS011;64227;48.724;9.104;2023-08-06T06:53:13;1.25;;;0.43;;
75634;SDS011;64227;48.724;9.104;2023-08-06T06:55:39;1.15;;;0.60;;
75634;SDS011;64227;48.724;9.104;2023-08-06T06:58:04;1.35;;;0.47;;
75634;SDS011;64227;48.724;9.104;2023-08-06T07:00:29;0.70;;;0.30;;
75634;SDS011;64227;48.724;9.104;2023-08-06T07:02:55;2.60;;;0.30;;
75634;SDS011;64227;48.724;9.104;2023-08-06T07:05:20;1.13;;;0.30;;
75634;SDS011;64227;48.724;9.104;2023-08-06T07:07:45;0.57;;;0.35;;
75634;SDS011;64227;48.724;9.104;2023-08-06T07:10:10;0.82;;;0.30;;
75634;SDS011;64227;48.724;9.104;2023-08-06T07:12:36;1.75;;;0.40;;
75634;SDS011;64227;48.724;9.104;2023-08-06T07:15:02;2.40;;;0.50;;
75634;SDS011;64227;48.724;9.104;2023-08-06T07:17:29;0.73;;;0.40;;
75634;SDS011;64227;48.724;9.104;2023-08-06T07:19:55;1.52;;;0.60;;
75634;SDS011;64227;48.724;9.104;2023-08-06T07:22:20;0.57;;;0.43;;
75634;SDS011;64227;48.724;9.104;2023-08-06T07:24:45;0.45;;;0.40;;
75634;SDS011;64227;48.724;9.104;2023-08-06T07:27:11;0.30;;;0.10;;
75634;SDS011;64227;48.724;9.104;2023-08-06T07:29:36;0.32;;;0.22;;
75634;SDS011;64227;48.724;9.104;2023-08-06T07:32:01;0.40;;;0.30;;
75634;SDS011;64227;48.724;9.104;2023-08-06T07:34:27;0.50;;;0.20;;
75634;SDS011;64227;48.724;9.104;2023-08-06T07:36:52;0.65;;;0.25;;
75634;SDS011;64227;48.724;9.104;2023-08-06T07:39:17;0.50;;;0.30;;
75634;SDS011;64227;48.724;9.104;2023-08-06T07:41:42;0.28;;;0.20;;
75634;SDS011;64227;48.724;9.104;2023-08-06T07:44:08;0.50;;;0.30;;
75634;SDS011;64227;48.724;9.104;2023-08-06T07:46:33;0.45;;;0.30;;
75634;SDS011;64227;48.724;9.104;2023-08-06T07:48:58;0.10;;;0.10;;
75634;SDS011;64227;48.724;9.104;2023-08-06T07:51:24;0.22;;;0.20;;
75634;SDS011;64227;48.724;9.104;2023-08-06T07:53:49;0.20;;;0.20;;
75634;SDS011;64227;48.724;9.104;2023-08-06T07:56:14;0.50;;;0.20;;
75634;SDS011;64227;48.724;9.104;2023-08-06T07:58:40;0.17;;;0.13;;
75634;SDS011;64227;48.724;9.104;2023-08-06T08:01:06;0.03;;;0.00;;
75634;SDS011;64227;48.724;9.104;2023-08-06T08:03:32;0.10;;;0.00;;
75634;SDS011;64227;48.724;9.104;2023-08-06T08:05:57;0.00;;;0.00;;
75634;SDS011;64227;48.724;9.104;2023-08-06T08:08:22;1.35;;;0.08;;
75634;SDS011;64227;48.724;9.104;2023-08-06T08:10:48;0.20;;;0.00;;
75634;SDS011;64227;48.724;9.104;2023-08-06T08:13:13;0.10;;;0.10;;
75634;SDS011;64227;48.724;9.104;2023-08-06T08:15:39;0.08;;;0.00;;
75634;SDS011;64227;48.724;9.104;2023-08-06T08:18:04;0.17;;;0.03;;
75634;SDS011;64227;48.724;9.104;2023-08-06T08:20:29;0.10;;;0.10;;
75634;SDS011;64227;48.724;9.104;2023-08-06T08:22:57;0.28;;;0.10;;
75634;SDS011;64227;48.724;9.104;2023-08-06T08:25:23;0.28;;;0.00;;
75634;SDS011;64227;48.724;9.104;2023-08-06T08:27:49;1.10;;;0.10;;
75634;SDS011;64227;48.724;9.104;2023-08-06T08:30:14;0.10;;;0.00;;
75634;SDS011;64227;48.724;9.104;2023-08-06T08:32:39;0.00;;;0.00;;
75634;SDS011;64227;48.724;9.104;2023-08-06T08:35:05;0.00;;;0.00;;
75634;SDS011;64227;48.724;9.104;2023-08-06T08:37:30;0.85;;;0.00;;
75634;SDS011;64227;48.724;9.104;2023-08-06T08:39:55;0.10;;;0.05;;
75634;SDS011;64227;48.724;9.104;2023-08-06T08:42:21;0.00;;;0.00;;
75634;SDS011;64227;48.724;9.104;2023-08-06T08:44:47;0.22;;;0.05;;
75634;SDS011;64227;48.724;9.104;2023-08-06T08:47:12;0.30;;;0.00;;
75634;SDS011;64227;48.724;9.104;2023-08-06T08:49:38;0.10;;;0.10;;
75634;SDS011;64227;48.724;9.104;2023-08-06T08:52:04;0.05;;;0.00;;
75634;SDS011;64227;48.724;9.104;2023-08-06T08:54:34;0.05;;;0.00;;
75634;SDS011;64227;48.724;9.104;2023-08-06T08:57:00;0.03;;;0.00;;
75634;SDS011;64227;48.724;9.104;2023-08-06T08:59:26;0.95;;;0.10;;
75634;SDS011;64227;48.724;9.104;2023-08-06T09:01:51;0.00;;;0.00;;
75634;SDS011;64227;48.724;9.104;2023-08-06T09:04:18;0.00;;;0.00;;
75634;SDS011;64227;48.724;9.104;2023-08-06T09:06:44;0.00;;;0.00;;
75634;SDS011;64227;48.724;9.104;2023-08-06T09:09:12;0.10;;;0.10;;
75634;SDS011;64227;48.724;9.104;2023-08-06T09:11:42;0.10;;;0.10;;
75634;SDS011;64227;48.724;9.104;2023-08-06T09:14:08;0.47;;;0.00;;
75634;SDS011;64227;48.724;9.104;2023-08-06T09:16:34;0.10;;;0.00;;
75634;SDS011;64227;48.724;9.104;2023-08-06T09:19:09;0.52;;;0.10;;
75634;SDS011;64227;48.724;9.104;2023-08-06T09:21:39;0.30;;;0.10;;
75634;SDS011;64227;48.724;9.104;2023-08-06T09:24:08;0.82;;;0.40;;
75634;SDS011;64227;48.724;9.104;2023-08-06T09:26:34;0.43;;;0.30;;
75634;SDS011;64227;48.724;9.104;2023-08-06T09:29:00;0.13;;;0.10;;
75634;SDS011;64227;48.724;9.104;2023-08-06T09:31:32;0.10;;;0.00;;
75634;SDS011;64227;48.724;9.104;2023-08-06T09:34:00;0.17;;;0.00;;
75634;SDS011;64227;48.724;9.104;2023-08-06T09:36:27;0.00;;;0.00;;
75634;SDS011;64227;48.724;9.104;2023-08-06T09:38:53;0.00;;;0.00;;
75634;SDS011;64227;48.724;9.104;2023-08-06T09:41:27;0.00;;;0.00;;
75634;SDS011;64227;48.724;9.104;2023-08-06T09:43:54;1.30;;;0.10;;
75634;SDS011;64227;48.724;9.104;2023-08-06T09:46:24;0.25;;;0.10;;
75634;SDS011;64227;48.724;9.104;2023-08-06T09:48:50;0.38;;;0.10;;
75634;SDS011;64227;48.724;9.104;2023-08-06T09:51:15;0.08;;;0.03;;
75634;SDS011;64227;48.724;9.104;2023-08-06T09:53:42;0.38;;;0.22;;
75634;SDS011;64227;48.724;9.104;2023-08-06T09:56:09;0.22;;;0.00;;
75634;SDS011;64227;48.724;9.104;2023-08-06T09:58:34;0.00;;;0.00;;
75634;SDS011;64227;48.724;9.104;2023-08-06T10:01:01;0.68;;;0.10;;
75634;SDS011;64227;48.724;9.104;2023-08-06T10:03:27;0.00;;;0.00;;
75634;SDS011;64227;48.724;9.104;2023-08-06T10:05:55;0.82;;;0.05;;
75634;SDS011;64227;48.724;9.104;2023-08-06T10:08:20;0.22;;;0.10;;
75634;SDS011;64227;48.724;9.104;2023-08-06T10:10:48;0.22;;;0.10;;
75634;SDS011;64227;48.724;9.104;2023-08-06T10:13:14;0.68;;;0.15;;
75634;SDS011;64227;48.724;9.104;2023-08-06T10:15:39;0.00;;;0.00;;
75634;SDS011;64227;48.724;9.104;2023-08-06T10:18:05;0.35;;;0.20;;
75634;SDS011;64227;48.724;9.104;2023-08-06T10:20:34;0.22;;;0.15;;
75634;SDS011;64227;48.724;9.104;2023-08-06T10:23:04;0.73;;;0.15;;
75634;SDS011;64227;48.724;9.104;2023-08-06T10:25:33;0.55;;;0.10;;
75634;SDS011;64227;48.724;9.104;2023-08-06T10:27:59;0.08;;;0.08;;
75634;SDS011;64227;48.724;9.104;2023-08-06T10:38:04;1.10;;;0.00;;
75634;SDS011;64227;48.724;9.104;2023-08-06T10:40:31;0.00;;;0.00;;
75634;SDS011;64227;48.724;9.104;2023-08-06T10:42:58;0.10;;;0.10;;
75634;SDS011;64227;48.724;9.104;2023-08-06T10:45:24;2.53;;;0.30;;
75634;SDS011;64227;48.724;9.104;2023-08-06T10:47:53;1.15;;;0.10;;
75634;SDS011;64227;48.724;9.104;2023-08-06T10:50:20;0.30;;;0.10;;
75634;SDS011;64227;48.724;9.104;2023-08-06T10:52:46;1.00;;;0.10;;
75634;SDS011;64227;48.724;9.104;2023-08-06T10:55:12;0.22;;;0.10;;
75634;SDS011;64227;48.724;9.104;2023-08-06T10:57:47;0.85;;;0.30;;
75634;SDS011;64227;48.724;9.104;2023-08-06T11:00:12;0.80;;;0.10;;
75634;SDS011;64227;48.724;9.104;2023-08-06T11:02:38;1.55;;;0.10;;
75634;SDS011;64227;48.724;9.104;2023-08-06T11:05:07;0.25;;;0.10;;
75634;SDS011;64227;48.724;9.104;2023-08-06T11:07:34;0.88;;;0.25;;
75634;SDS011;64227;48.724;9.104;2023-08-06T11:10:03;2.17;;;1.15;;
75634;SDS011;64227;48.724;9.104;2023-08-06T11:12:30;0.40;;;0.10;;
75634;SDS011;64227;48.724;9.104;2023-08-06T11:14:56;0.10;;;0.10;;
75634;SDS011;64227;48.724;9.104;2023-08-06T11:17:22;0.13;;;0.10;;
75634;SDS011;64227;48.724;9.104;2023-08-06T11:19:47;0.90;;;0.10;;
75634;SDS011;64227;48.724;9.104;2023-08-06T11:22:14;0.10;;;0.10;;
75634;SDS011;64227;48.724;9.104;2023-08-06T11:24:39;0.20;;;0.20;;
75634;SDS011;64227;48.724;9.104;2023-08-06T11:27:11;0.28;;;0.28;;
75634;SDS011;64227;48.724;9.104;2023-08-06T11:29:38;0.10;;;0.10;;
75634;SDS011;64227;48.724;9.104;2023-08-06T11:32:04;0.30;;;0.10;;
75634;SDS011;64227;48.724;9.104;2023-08-06T11:34:30;0.20;;;0.20;;
75634;SDS011;64227;48.724;9.104;2023-08-06T11:36:56;1.33;;;0.30;;
75634;SDS011;64227;48.724;9.104;2023-08-06T11:39:21;0.20;;;0.20;;
75634;SDS011;64227;48.724;9.104;2023-08-06T11:41:47;0.30;;;0.30;;
75634;SDS011;64227;48.724;9.104;2023-08-06T11:44:13;2.08;;;0.52;;
75634;SDS011;64227;48.724;9.104;2023-08-06T11:46:54;0.17;;;0.17;;
75634;SDS011;64227;48.724;9.104;2023-08-06T11:52:24;2.85;;;1.25;;
75634;SDS011;64227;48.724;9.104;2023-08-06T11:55:03;0.80;;;0.30;;
75634;SDS011;64227;48.724;9.104;2023-08-06T11:57:49;0.50;;;0.50;;
75634;SDS011;64227;48.724;9.104;2023-08-06T12:00:17;1.48;;;0.50;;
75634;SDS011;64227;48.724;9.104;2023-08-06T12:02:45;0.50;;;0.50;;
75634;SDS011;64227;48.724;9.104;2023-08-06T12:05:11;0.50;;;0.50;;
75634;SDS011;64227;48.724;9.104;2023-08-06T12:07:38;1.65;;;0.40;;
75634;SDS011;64227;48.724;9.104;2023-08-06T12:10:07;0.57;;;0.50;;
75634;SDS011;64227;48.724;9.104;2023-08-06T12:12:33;0.40;;;0.40;;
75634;SDS011;64227;48.724;9.104;2023-08-06T12:14:59;0.47;;;0.45;;
75634;SDS011;64227;48.724;9.104;2023-08-06T12:17:24;0.80;;;0.40;;
75634;SDS011;64227;48.724;9.104;2023-08-06T12:19:50;0.47;;;0.32;;
75634;SDS011;64227;48.724;9.104;2023-08-06T12:22:15;0.35;;;0.32;;
75634;SDS011;64227;48.724;9.104;2023-08-06T12:24:41;0.47;;;0.35;;
75634;SDS011;64227;48.724;9.104;2023-08-06T12:27:07;0.70;;;0.28;;
75634;SDS011;64227;48.724;9.104;2023-08-06T12:29:33;0.45;;;0.30;;
75634;SDS011;64227;48.724;9.104;2023-08-06T12:31:58;0.45;;;0.30;;
75634;SDS011;64227;48.724;9.104;2023-08-06T12:34:23;0.38;;;0.28;;
75634;SDS011;64227;48.724;9.104;2023-08-06T12:36:49;1.48;;;0.40;;
75634;SDS011;64227;48.724;9.104;2023-08-06T12:39:14;0.47;;;0.30;;
75634;SDS011;64227;48.724;9.104;2023-08-06T12:41:39;0.55;;;0.32;;
75634;SDS011;64227;48.724;9.104;2023-08-06T12:44:04;0.73;;;0.30;;
75634;SDS011;64227;48.724;9.104;2023-08-06T12:46:30;0.45;;;0.35;;
75634;SDS011;64227;48.724;9.104;2023-08-06T12:48:56;1.15;;;0.20;;
75634;SDS011;64227;48.724;9.104;2023-08-06T12:51:22;4.85;;;0.38;;
75634;SDS011;64227;48.724;9.104;2023-08-06T12:53:48;0.30;;;0.30;;
75634;SDS011;64227;48.724;9.104;2023-08-06T12:56:13;2.17;;;0.45;;
75634;SDS011;64227;48.724;9.104;2023-08-06T12:58:38;0.40;;;0.30;;
75634;SDS011;64227;48.724;9.104;2023-08-06T13:01:04;0.75;;;0.35;;
75634;SDS011;64227;48.724;9.104;2023-08-06T13:03:30;0.80;;;0.30;;
75634;SDS011;64227;48.724;9.104;2023-08-06T13:05:55;1.58;;;0.70;;
75634;SDS011;64227;48.724;9.104;2023-08-06T13:08:21;0.65;;;0.40;;
75634;SDS011;64227;48.724;9.104;2023-08-06T13:10:46;0.60;;;0.40;;
75634;SDS011;64227;48.724;9.104;2023-08-06T13:13:11;3.40;;;0.52;;
75634;SDS011;64227;48.724;9.104;2023-08-06T13:15:36;0.55;;;0.45;;
75634;SDS011;64227;48.724;9.104;2023-08-06T13:18:02;0.40;;;0.40;;
75634;SDS011;64227;48.724;9.104;2023-08-06T13:20:29;0.65;;;0.30;;
75634;SDS011;64227;48.724;9.104;2023-08-06T13:22:55;0.57;;;0.50;;
75634;SDS011;64227;48.724;9.104;2023-08-06T13:25:21;0.50;;;0.50;;
75634;SDS011;64227;48.724;9.104;2023-08-06T13:27:46;1.17;;;0.38;;
75634;SDS011;64227;48.724;9.104;2023-08-06T13:30:12;0.50;;;0.30;;
75634;SDS011;64227;48.724;9.104;2023-08-06T13:32:37;0.30;;;0.30;;
75634;SDS011;64227;48.724;9.104;2023-08-06T13:35:04;0.40;;;0.35;;
75634;SDS011;64227;48.724;9.104;2023-08-06T13:37:29;0.20;;;0.20;;
75634;SDS011;64227;48.724;9.104;2023-08-06T13:39:55;0.38;;;0.30;;
75634;SDS011;64227;48.724;9.104;2023-08-06T13:42:20;0.30;;;0.30;;
75634;SDS011;64227;48.724;9.104;2023-08-06T13:44:45;0.75;;;0.30;;
75634;SDS011;64227;48.724;9.104;2023-08-06T13:47:10;0.45;;;0.22;;
75634;SDS011;64227;48.724;9.104;2023-08-06T13:49:36;0.30;;;0.30;;
75634;SDS011;64227;48.724;9.104;2023-08-06T13:52:01;0.43;;;0.40;;
75634;SDS011;64227;48.724;9.104;2023-08-06T13:54:26;0.88;;;0.30;;
75634;SDS011;64227;48.724;9.104;2023-08-06T13:56:52;0.65;;;0.30;;
75634;SDS011;64227;48.724;9.104;2023-08-06T13:59:18;0.20;;;0.20;;
75634;SDS011;64227;48.724;9.104;2023-08-06T14:01:44;0.20;;;0.20;;
75634;SDS011;64227;48.724;9.104;2023-08-06T14:04:10;0.93;;;0.25;;
75634;SDS011;64227;48.724;9.104;2023-08-06T14:06:35;1.25;;;0.20;;
75634;SDS011;64227;48.724;9.104;2023-08-06T14:09:01;0.17;;;0.13;;
75634;SDS011;64227;48.724;9.104;2023-08-06T14:11:26;0.25;;;0.22;;
75634;SDS011;64227;48.724;9.104;2023-08-06T14:13:51;0.30;;;0.30;;
75634;SDS011;64227;48.724;9.104;2023-08-06T14:16:17;0.43;;;0.30;;
75634;SDS011;64227;48.724;9.104;2023-08-06T14:18:42;0.40;;;0.25;;
75634;SDS011;64227;48.724;9.104;2023-08-06T14:21:07;0.30;;;0.30;;
75634;SDS011;64227;48.724;9.104;2023-08-06T14:23:33;0.65;;;0.20;;
75634;SDS011;64227;48.724;9.104;2023-08-06T14:25:58;0.30;;;0.10;;
75634;SDS011;64227;48.724;9.104;2023-08-06T14:28:24;1.70;;;0.50;;
75634;SDS011;64227;48.724;9.104;2023-08-06T14:30:49;1.25;;;0.30;;
75634;SDS011;64227;48.724;9.104;2023-08-06T14:33:14;0.25;;;0.25;;
75634;SDS011;64227;48.724;9.104;2023-08-06T14:35:40;0.30;;;0.30;;
75634;SDS011;64227;48.724;9.104;2023-08-06T14:38:05;1.40;;;0.40;;
75634;SDS011;64227;48.724;9.104;2023-08-06T14:40:30;0.38;;;0.38;;
75634;SDS011;64227;48.724;9.104;2023-08-06T14:43:00;0.30;;;0.30;;
75634;SDS011;64227;48.724;9.104;2023-08-06T14:45:26;0.30;;;0.30;;
75634;SDS011;64227;48.724;9.104;2023-08-06T14:47:52;0.40;;;0.40;;
75634;SDS011;64227;48.724;9.104;2023-08-06T14:50:17;0.30;;;0.30;;
75634;SDS011;64227;48.724;9.104;2023-08-06T14:52:42;0.40;;;0.40;;
75634;SDS011;64227;48.724;9.104;2023-08-06T14:55:08;0.50;;;0.50;;
75634;SDS011;64227;48.724;9.104;2023-08-06T14:57:33;1.00;;;0.52;;